createdAt,value
2023-01-07T00:01:07.314Z,21.20
2023-01-07T00:05:09.543Z,22.60
2023-01-07T00:09:13.915Z,20.70
2023-01-07T00:13:15.761Z,20.00
2023-01-07T00:17:17.672Z,18.20
2023-01-07T00:21:21.585Z,18.90
2023-01-07T00:25:23.549Z,18.50
2023-01-07T00:29:25.451Z,20.00
2023-01-07T00:33:31.040Z,21.80
2023-01-07T00:37:51.247Z,18.30
2023-01-07T00:42:11.885Z,17.60
2023-01-07T00:46:14.985Z,16.80
2023-01-07T00:50:16.957Z,19.00
2023-01-07T00:54:18.830Z,17.70
2023-01-07T00:58:24.173Z,22.10
2023-01-07T01:02:26.508Z,19.50
2023-01-07T01:06:28.647Z,21.00
2023-01-07T01:10:30.539Z,21.50
2023-01-07T01:14:33.401Z,22.20
2023-01-07T01:18:36.369Z,22.10
2023-01-07T01:22:38.717Z,20.50
2023-01-07T01:26:40.650Z,21.10
2023-01-07T01:30:42.645Z,21.40
2023-01-07T01:34:44.891Z,19.50
2023-01-07T01:38:46.917Z,20.60
2023-01-07T01:42:49.857Z,23.40
2023-01-07T01:46:53.077Z,22.50
2023-01-07T01:50:55.933Z,22.20
2023-01-07T01:55:02.475Z,22.20
2023-01-07T01:59:08.126Z,20.50
2023-01-07T02:03:14.699Z,21.10
2023-01-07T02:07:18.205Z,20.40
2023-01-07T02:11:29.625Z,22.20
2023-01-07T02:15:31.513Z,20.00
2023-01-07T02:19:55.300Z,21.60
2023-01-07T02:24:47.574Z,22.20
2023-01-07T02:29:17.755Z,21.40
2023-01-07T02:33:33.667Z,24.30
2023-01-07T02:37:47.867Z,22.10
2023-01-07T02:42:13.508Z,23.00
2023-01-07T02:46:52.082Z,24.00
2023-01-07T02:50:54.008Z,22.20
2023-01-07T02:55:02.717Z,21.00
2023-01-07T02:59:40.137Z,20.50
2023-01-07T03:04:09.547Z,20.00
2023-01-07T03:08:17.646Z,21.10
2023-01-07T03:12:57.903Z,22.10
2023-01-07T03:17:05.684Z,19.90
2023-01-07T03:21:13.546Z,20.80
2023-01-07T03:25:17.135Z,19.60
2023-01-07T03:29:20.435Z,20.90
2023-01-07T03:33:54.462Z,21.20
2023-01-07T03:38:00.647Z,20.30
2023-01-07T03:42:27.929Z,26.80
2023-01-07T03:46:30.035Z,22.30
2023-01-07T03:50:32.293Z,21.20
2023-01-07T03:54:34.380Z,21.80
2023-01-07T03:58:36.402Z,22.80
2023-01-07T04:02:38.439Z,23.50
2023-01-07T04:06:41.355Z,21.60
2023-01-07T04:10:43.562Z,22.70
2023-01-07T04:14:46.442Z,22.00
2023-01-07T04:18:48.587Z,23.80
2023-01-07T04:22:50.544Z,21.30
2023-01-07T04:26:53.111Z,25.20
2023-01-07T04:30:58.873Z,21.50
2023-01-07T04:35:01.463Z,24.90
2023-01-07T04:39:04.057Z,23.90
2023-01-07T04:43:06.170Z,27.70
2023-01-07T04:47:08.431Z,23.80
2023-01-07T04:51:10.456Z,25.80
2023-01-07T04:55:12.886Z,21.80
2023-01-07T04:59:15.563Z,21.10
2023-01-07T05:03:21.036Z,23.50
2023-01-07T05:07:23.260Z,21.40
2023-01-07T05:11:26.110Z,23.10
2023-01-07T05:15:29.421Z,21.80
2023-01-07T05:19:31.543Z,25.70
2023-01-07T05:23:33.958Z,22.40
2023-01-07T05:27:36.375Z,20.20
2023-01-07T05:31:38.848Z,22.60
2023-01-07T05:35:41.087Z,22.50
2023-01-07T05:39:43.253Z,26.00
2023-01-07T05:43:47.845Z,24.70
2023-01-07T05:47:49.896Z,22.20
2023-01-07T05:51:51.829Z,24.00
2023-01-07T05:55:58.564Z,21.10
2023-01-07T06:00:00.543Z,24.30
2023-01-07T06:04:02.595Z,24.10
2023-01-07T06:08:04.839Z,25.90
2023-01-07T06:12:06.948Z,21.80
2023-01-07T06:16:10.184Z,22.70
2023-01-07T06:20:14.509Z,21.60
2023-01-07T06:24:16.464Z,23.00
2023-01-07T06:28:18.407Z,21.00
2023-01-07T06:32:20.282Z,19.70
2023-01-07T06:36:22.332Z,18.40
2023-01-07T06:40:24.239Z,21.20
2023-01-07T06:44:26.149Z,24.30
2023-01-07T06:48:28.133Z,24.90
2023-01-07T06:52:30.010Z,21.60
2023-01-07T06:56:31.911Z,20.30
2023-01-07T07:00:33.791Z,19.70
2023-01-07T07:04:35.705Z,21.80
2023-01-07T07:08:38.031Z,23.90
2023-01-07T07:12:40.176Z,22.50
2023-01-07T07:16:42.107Z,23.20
2023-01-07T07:20:46.726Z,22.60
2023-01-07T07:24:48.694Z,20.40
2023-01-07T07:28:50.656Z,21.40
2023-01-07T07:32:52.588Z,21.70
2023-01-07T07:36:54.453Z,26.50
2023-01-07T07:40:56.445Z,31.10
2023-01-07T07:44:58.394Z,28.10
2023-01-07T07:49:00.523Z,28.80
2023-01-07T07:53:02.879Z,27.80
2023-01-07T07:57:04.846Z,24.70
2023-01-07T08:01:07.397Z,21.50
2023-01-07T08:05:11.382Z,18.20
2023-01-07T08:09:13.425Z,21.40
2023-01-07T08:13:15.302Z,28.30
2023-01-07T08:17:17.183Z,34.60
2023-01-07T08:21:19.474Z,30.90
2023-01-07T08:25:21.636Z,31.90
2023-01-07T08:29:23.653Z,34.20
2023-01-07T08:33:25.551Z,34.30
2023-01-07T08:37:29.853Z,32.40
2023-01-07T08:41:31.865Z,32.00
2023-01-07T08:45:34.420Z,31.60
2023-01-07T08:49:36.473Z,28.10
2023-01-07T08:53:38.586Z,28.90
2023-01-07T08:57:40.583Z,31.20
2023-01-07T09:01:42.798Z,31.90
2023-01-07T09:05:48.018Z,28.70
2023-01-07T09:09:49.847Z,27.50
2023-01-07T09:13:51.737Z,20.40
2023-01-07T09:17:53.915Z,20.40
2023-01-07T09:21:56.238Z,28.00
2023-01-07T09:25:58.396Z,25.50
2023-01-07T09:30:00.342Z,25.10
2023-01-07T09:34:02.248Z,25.80
2023-01-07T09:38:04.724Z,22.10
2023-01-07T09:42:12.277Z,22.90
2023-01-07T09:46:17.798Z,21.90
2023-01-07T09:50:51.912Z,17.70
2023-01-07T09:55:03.443Z,15.20
2023-01-07T09:59:07.045Z,17.50
2023-01-07T10:03:08.942Z,16.60
2023-01-07T10:07:17.036Z,19.10
2023-01-07T10:11:27.903Z,19.10
2023-01-07T10:16:02.818Z,16.90
2023-01-07T10:20:32.714Z,17.50
2023-01-07T10:24:41.049Z,16.50
2023-01-07T10:28:54.814Z,18.40
2023-01-07T10:33:12.715Z,17.40
2023-01-07T10:37:25.887Z,17.00
2023-01-07T10:41:45.922Z,14.60
2023-01-07T10:46:09.545Z,16.40
2023-01-07T10:50:48.039Z,16.40
2023-01-07T10:55:02.418Z,15.80
2023-01-07T10:59:04.839Z,15.70
2023-01-07T11:03:22.309Z,12.80
2023-01-07T11:07:48.963Z,13.70
2023-01-07T11:11:53.423Z,15.90
2023-01-07T11:16:07.753Z,14.00
2023-01-07T11:20:10.136Z,14.70
2023-01-07T11:24:30.019Z,14.80
2023-01-07T11:28:33.389Z,15.20
2023-01-07T11:32:39.832Z,14.30
2023-01-07T11:36:42.391Z,15.30
2023-01-07T11:40:56.344Z,17.60
2023-01-07T11:45:23.111Z,14.30
2023-01-07T11:49:29.869Z,15.80
2023-01-07T11:53:34.426Z,32.40
2023-01-07T11:57:36.279Z,23.70
2023-01-07T12:01:46.355Z,17.40
2023-01-07T12:05:57.012Z,15.70
2023-01-07T12:09:59.025Z,14.20
2023-01-07T12:14:07.601Z,16.40
2023-01-07T12:18:26.091Z,16.50
2023-01-07T12:22:43.531Z,16.30
2023-01-07T12:27:23.317Z,16.80
2023-01-07T12:31:34.675Z,14.90
2023-01-07T12:35:42.193Z,15.70
2023-01-07T12:39:45.419Z,15.80
2023-01-07T12:44:21.569Z,17.20
2023-01-07T12:48:35.098Z,18.60
2023-01-07T12:53:07.168Z,16.80
2023-01-07T12:57:16.315Z,17.90
2023-01-07T13:01:21.891Z,17.40
2023-01-07T13:05:25.825Z,17.90
2023-01-07T13:09:36.399Z,19.30
2023-01-07T13:13:53.161Z,16.80
2023-01-07T13:17:58.127Z,18.70
2023-01-07T13:22:00.203Z,20.10
2023-01-07T13:26:14.401Z,21.80
2023-01-07T13:30:29.969Z,20.90
2023-01-07T13:34:44.883Z,19.90
2023-01-07T13:39:09.785Z,22.20
2023-01-07T13:43:20.930Z,19.80
2023-01-07T13:47:26.475Z,22.60
2023-01-07T13:51:34.770Z,23.50
2023-01-07T13:55:47.996Z,29.70
2023-01-07T13:59:52.758Z,28.10
2023-01-07T14:04:05.810Z,25.20
2023-01-07T14:08:07.991Z,26.60
2023-01-07T14:12:41.772Z,27.60
2023-01-07T14:16:53.218Z,24.50
2023-01-07T14:21:27.475Z,26.70
2023-01-07T14:25:52.541Z,25.20
2023-01-07T14:30:02.823Z,26.20
2023-01-07T14:34:25.169Z,30.40
2023-01-07T14:38:29.984Z,29.90
2023-01-07T14:42:43.322Z,25.00
2023-01-07T14:46:47.247Z,26.80
2023-01-07T14:50:59.814Z,26.00
2023-01-07T14:55:28.811Z,27.20
2023-01-07T14:59:40.263Z,30.70
2023-01-07T15:04:00.882Z,32.50
2023-01-07T15:08:27.224Z,30.70
2023-01-07T15:13:13.171Z,28.20
2023-01-07T15:17:16.028Z,28.80
2023-01-07T15:21:32.816Z,28.80
2023-01-07T15:25:44.735Z,27.00
2023-01-07T15:30:12.723Z,29.80
2023-01-07T15:34:16.294Z,31.60
2023-01-07T15:38:30.119Z,32.10
2023-01-07T15:42:32.449Z,30.50
2023-01-07T15:46:39.763Z,34.80
2023-01-07T15:50:45.319Z,23.80
2023-01-07T15:54:47.180Z,20.10
2023-01-07T15:58:49.245Z,18.60
2023-01-07T16:02:52.063Z,19.10
2023-01-07T16:07:00.714Z,17.90
2023-01-07T16:11:20.106Z,19.50
2023-01-07T16:15:32.770Z,24.20
2023-01-07T16:19:34.732Z,26.00
2023-01-07T16:23:39.262Z,24.10
2023-01-07T16:27:41.772Z,25.80
2023-01-07T16:31:44.388Z,23.00
2023-01-07T16:35:48.173Z,25.60
2023-01-07T16:39:52.660Z,22.50
2023-01-07T16:43:56.436Z,26.30
2023-01-07T16:48:23.338Z,27.90
2023-01-07T16:52:33.124Z,35.10
2023-01-07T16:56:35.802Z,38.80
2023-01-07T17:00:37.709Z,55.30
2023-01-07T17:04:39.704Z,37.10
2023-01-07T17:08:48.996Z,41.60
2023-01-07T17:13:31.749Z,37.90
2023-01-07T17:17:34.355Z,33.40
2023-01-07T17:21:40.500Z,34.30
2023-01-07T17:25:43.047Z,30.60
2023-01-07T17:29:45.207Z,27.90
2023-01-07T17:33:47.312Z,24.30
2023-01-07T17:37:50.689Z,24.40
2023-01-07T17:42:11.384Z,24.10
2023-01-07T17:46:13.431Z,26.00
2023-01-07T17:50:17.079Z,36.30
2023-01-07T17:54:24.343Z,35.60
2023-01-07T17:58:27.395Z,28.40
2023-01-07T18:02:31.597Z,32.00
2023-01-07T18:06:35.217Z,30.30
2023-01-07T18:10:55.843Z,32.60
2023-01-07T18:14:59.752Z,29.00
2023-01-07T18:19:01.801Z,29.50
2023-01-07T18:23:03.676Z,29.30
2023-01-07T18:27:05.575Z,30.10
2023-01-07T18:31:07.889Z,30.30
2023-01-07T18:35:11.585Z,28.40
2023-01-07T18:39:19.235Z,32.10
2023-01-07T18:43:22.005Z,32.60
2023-01-07T18:47:23.949Z,39.20
2023-01-07T18:51:25.858Z,40.10
2023-01-07T18:55:29.038Z,31.00
2023-01-07T18:59:31.090Z,28.60
2023-01-07T19:03:36.716Z,29.30
2023-01-07T19:07:38.663Z,29.50
2023-01-07T19:11:41.435Z,30.00
2023-01-07T19:15:43.385Z,30.20
2023-01-07T19:19:48.720Z,30.90
2023-01-07T19:23:50.960Z,33.60
2023-01-07T19:27:52.782Z,33.10
2023-01-07T19:32:04.319Z,34.00
2023-01-07T19:36:11.663Z,36.30
2023-01-07T19:40:13.581Z,36.60
2023-01-07T19:44:16.009Z,38.30
2023-01-07T19:48:19.175Z,37.50
2023-01-07T19:52:21.264Z,35.00
2023-01-07T19:56:23.283Z,35.80
2023-01-07T20:00:25.300Z,36.10
2023-01-07T20:04:27.680Z,36.70
2023-01-07T20:08:29.584Z,34.80
2023-01-07T20:12:31.411Z,36.00
2023-01-07T20:16:36.444Z,35.50
2023-01-07T20:20:38.346Z,36.90
2023-01-07T20:24:40.266Z,37.20
2023-01-07T20:28:42.608Z,35.40
2023-01-07T20:32:44.597Z,39.20
2023-01-07T20:36:46.682Z,38.20
2023-01-07T20:40:48.523Z,40.70
2023-01-07T20:44:51.249Z,38.30
2023-01-07T20:48:55.053Z,40.10
2023-01-07T20:52:57.359Z,41.10
2023-01-07T20:57:02.301Z,40.50
2023-01-07T21:01:10.727Z,40.20
2023-01-07T21:05:13.248Z,42.50
2023-01-07T21:09:15.305Z,40.80
2023-01-07T21:13:17.516Z,41.60
2023-01-07T21:17:19.433Z,33.90
2023-01-07T21:21:25.808Z,39.20
2023-01-07T21:25:27.971Z,39.20
2023-01-07T21:29:30.245Z,36.60
2023-01-07T21:33:32.804Z,35.60
2023-01-07T21:37:35.848Z,29.60
2023-01-07T21:41:38.285Z,29.10
2023-01-07T21:45:40.412Z,27.90
2023-01-07T21:49:42.762Z,28.90
2023-01-07T21:53:45.084Z,26.60
2023-01-07T21:57:54.874Z,25.30
2023-01-07T22:01:56.886Z,26.60
2023-01-07T22:06:15.124Z,27.30
2023-01-07T22:10:16.996Z,26.60
2023-01-07T22:14:19.057Z,25.00
2023-01-07T22:18:21.231Z,21.60
2023-01-07T22:22:23.203Z,22.70
2023-01-07T22:26:25.154Z,23.60
2023-01-07T22:30:30.431Z,24.20
2023-01-07T22:34:32.323Z,25.60
2023-01-07T22:38:36.060Z,24.70
2023-01-07T22:43:01.629Z,23.00
2023-01-07T22:47:06.112Z,26.40
2023-01-07T22:51:19.455Z,23.80
2023-01-07T22:55:21.474Z,26.20
2023-01-07T22:59:23.410Z,26.70
2023-01-07T23:03:25.607Z,23.40
2023-01-07T23:07:28.148Z,25.70
2023-01-07T23:11:51.179Z,23.20
2023-01-07T23:15:53.069Z,25.70
2023-01-07T23:19:54.955Z,27.20
2023-01-07T23:23:56.961Z,27.60
2023-01-07T23:27:59.036Z,24.00
2023-01-07T23:32:01.065Z,23.70
2023-01-07T23:36:07.704Z,25.30
2023-01-07T23:40:10.078Z,27.70
2023-01-07T23:44:12.009Z,26.90
2023-01-07T23:48:13.879Z,28.80
2023-01-07T23:52:15.836Z,25.90
2023-01-07T23:56:20.319Z,24.80
